Terminal Aerodrome Forecast
Issued by NWS

Home | Current Version | Previous Version | Text Only | Print | Product List | Glossary On
Versions: 1 2 3 4 5 6 7 8 9 10 11 12 13 14 15 16
000
FTUS41 KBGM 310533
TAFRME
TAF
KRME 310533Z 3106/0106 VRB03KT P6SM SCT250
     FM310800 VRB03KT P6SM BKN250
     FM311600 25007KT P6SM BKN100
     FM312000 VRB03KT P6SM OVC060
      TEMPO 3120/3124 3SM -SHRA OVC025=

USA.gov is the U.S. government's official web portal to all federal, state and local government web resources and services.